^^
Paulen-Weather Station Historical Data
Daily Summary for May 05, 2022 Units:  Metric    English   Both
Daily Weekly Monthly Yearly Custom
  High: Low: Average:
Temperature: 9 °C 8 °C 8.2 °C
Dew Point: 7 °C 5 °C 5.9 °C
Humidity: 89% 84% 87%
Wind Speed: 13km/h 1km/h 5.9km/h
Wind Gust: 10km/h - -
Wind- - NW
Pressure: 1016.83 hPa 1016.49 hPa -
Precipitation: 0 mm    
Historical Graphs
 
 
Tabular Data for May 05, 2022
Time Temperature Dew Point Pressure Wind Wind Speed Wind Gust Humidity Rainfall Rate (Hourly) solar
00:04 8 °C 5 °C 1016.76 hPa NNW 7 km/h 6 km/h 84% 0 mm 0 W/m2
00:09 8 °C 5 °C 1016.7 hPa NNW 7 km/h 5 km/h 84% 0 mm 0 W/m2
00:14 8 °C 5 °C 1016.7 hPa N 10 km/h 6 km/h 84% 0 mm 0 W/m2
00:19 8 °C 5 °C 1016.73 hPa NNW 7 km/h 6 km/h 84% 0 mm 0 W/m2
00:24 8 °C 5 °C 1016.73 hPa NNW 7 km/h 5 km/h 84% 0 mm 0 W/m2
00:29 8 °C 5 °C 1016.73 hPa NNW 7 km/h 5 km/h 84% 0 mm 0 W/m2
00:34 8 °C 5 °C 1016.73 hPa NNW 6 km/h 4 km/h 84% 0 mm 0 W/m2
00:39 8 °C 5 °C 1016.76 hPa N 6 km/h 6 km/h 85% 0 mm 0 W/m2
00:44 8 °C 5 °C 1016.8 hPa NNW 7 km/h 5 km/h 85% 0 mm 0 W/m2
00:49 8 °C 5 °C 1016.8 hPa N 6 km/h 4 km/h 85% 0 mm 0 W/m2
00:54 8 °C 5 °C 1016.83 hPa NNW 6 km/h 5 km/h 85% 0 mm 0 W/m2
00:59 8 °C 5 °C 1016.83 hPa NNW 4 km/h 4 km/h 85% 0 mm 0 W/m2
01:04 8 °C 6 °C 1016.83 hPa NW 6 km/h 5 km/h 85% 0 mm 0 W/m2
01:09 8 °C 6 °C 1016.8 hPa NNW 5 km/h 3 km/h 86% 0 mm 0 W/m2
01:14 8 °C 6 °C 1016.8 hPa NNW 4 km/h 3 km/h 86% 0 mm 0 W/m2
01:19 8 °C 6 °C 1016.76 hPa NNW 8 km/h 7 km/h 86% 0 mm 0 W/m2
01:29 8 °C 6 °C 1016.8 hPa NNW 5 km/h 4 km/h 86% 0 mm 0 W/m2
01:34 8 °C 6 °C 1016.73 hPa NNW 6 km/h 4 km/h 86% 0 mm 0 W/m2
01:39 8 °C 6 °C 1016.7 hPa NNW 3 km/h 2 km/h 86% 0 mm 0 W/m2
01:44 8 °C 6 °C 1016.7 hPa NNW 1 km/h 3 km/h 87% 0 mm 0 W/m2
01:49 8 °C 6 °C 1016.7 hPa NNW 3 km/h 3 km/h 87% 0 mm 0 W/m2
01:54 8 °C 6 °C 1016.66 hPa NNW 2 km/h 1 km/h 87% 0 mm 0 W/m2
01:59 8 °C 6 °C 1016.7 hPa NNW 2 km/h   87% 0 mm 0 W/m2
02:04 8 °C 6 °C 1016.7 hPa NNW 4 km/h 2 km/h 87% 0 mm 0 W/m2
02:09 8 °C 6 °C 1016.7 hPa N 2 km/h 1 km/h 87% 0 mm 0 W/m2
02:14 8 °C 6 °C 1016.7 hPa N 4 km/h 2 km/h 87% 0 mm 0 W/m2
02:19 8 °C 6 °C 1016.63 hPa N 1 km/h 1 km/h 87% 0 mm 0 W/m2
02:24 8 °C 6 °C 1016.63 hPa NNW 5 km/h 5 km/h 87% 0 mm 0 W/m2
02:29 8 °C 6 °C 1016.59 hPa NW 2 km/h 1 km/h 88% 0 mm 0 W/m2
02:34 8 °C 6 °C 1016.59 hPa N 4 km/h 3 km/h 88% 0 mm 0 W/m2
02:39 8 °C 7 °C 1016.59 hPa NNW 7 km/h 4 km/h 88% 0 mm 0 W/m2
02:44 9 °C 7 °C 1016.53 hPa NNW 9 km/h 10 km/h 89% 0 mm 0 W/m2
02:49 9 °C 7 °C 1016.53 hPa N 11 km/h 7 km/h 89% 0 mm 0 W/m2
02:54 9 °C 7 °C 1016.53 hPa NNE 7 km/h 5 km/h 89% 0 mm 0 W/m2
02:59 9 °C 7 °C 1016.53 hPa N 9 km/h 7 km/h 89% 0 mm 0 W/m2
03:04 9 °C 7 °C 1016.49 hPa NNW 8 km/h 5 km/h 89% 0 mm 0 W/m2
03:09 9 °C 7 °C 1016.49 hPa N 13 km/h 8 km/h 89% 0 mm 0 W/m2
03:14 9 °C 7 °C 1016.49 hPa NW 9 km/h 8 km/h 89% 0 mm 0 W/m2
03:19 9 °C 7 °C 1016.53 hPa N 10 km/h 6 km/h 89% 0 mm 0 W/m2
Compliments of Weather Underground - 2 mb